sensor_id;sensor_type;location;lat;lon;timestamp;temperature;humidity
44723;DHT22;30451;48.638;10.624;2024-03-17T00:01:31;22.80;52.30
44723;DHT22;30451;48.638;10.624;2024-03-17T00:03:57;22.80;52.30
44723;DHT22;30451;48.638;10.624;2024-03-17T00:06:22;22.80;52.30
44723;DHT22;30451;48.638;10.624;2024-03-17T00:08:48;22.80;52.30
44723;DHT22;30451;48.638;10.624;2024-03-17T00:11:13;22.80;52.30
44723;DHT22;30451;48.638;10.624;2024-03-17T00:13:39;22.80;52.30
44723;DHT22;30451;48.638;10.624;2024-03-17T00:16:04;22.70;52.20
44723;DHT22;30451;48.638;10.624;2024-03-17T00:18:30;22.70;52.20
44723;DHT22;30451;48.638;10.624;2024-03-17T00:20:55;22.70;52.20
44723;DHT22;30451;48.638;10.624;2024-03-17T00:23:21;22.70;52.20
44723;DHT22;30451;48.638;10.624;2024-03-17T00:25:47;22.70;52.20
44723;DHT22;30451;48.638;10.624;2024-03-17T00:28:12;22.70;52.20
44723;DHT22;30451;48.638;10.624;2024-03-17T00:30:38;22.70;52.30
44723;DHT22;30451;48.638;10.624;2024-03-17T00:33:03;22.70;52.20
44723;DHT22;30451;48.638;10.624;2024-03-17T00:35:29;22.70;52.30
44723;DHT22;30451;48.638;10.624;2024-03-17T00:37:55;22.60;52.20
44723;DHT22;30451;48.638;10.624;2024-03-17T00:40:21;22.60;52.20
44723;DHT22;30451;48.638;10.624;2024-03-17T00:42:47;22.70;52.20
44723;DHT22;30451;48.638;10.624;2024-03-17T00:45:12;22.60;52.20
44723;DHT22;30451;48.638;10.624;2024-03-17T00:47:38;22.60;52.20
44723;DHT22;30451;48.638;10.624;2024-03-17T00:50:04;22.60;52.20
44723;DHT22;30451;48.638;10.624;2024-03-17T00:52:31;22.60;52.20
44723;DHT22;30451;48.638;10.624;2024-03-17T00:54:57;22.60;52.20
44723;DHT22;30451;48.638;10.624;2024-03-17T00:57:23;22.60;52.20
44723;DHT22;30451;48.638;10.624;2024-03-17T00:59:49;22.60;52.20
44723;DHT22;30451;48.638;10.624;2024-03-17T01:02:15;22.60;52.20
44723;DHT22;30451;48.638;10.624;2024-03-17T01:04:43;22.50;52.10
44723;DHT22;30451;48.638;10.624;2024-03-17T01:07:09;22.50;52.10
44723;DHT22;30451;48.638;10.624;2024-03-17T01:09:35;22.50;52.20
44723;DHT22;30451;48.638;10.624;2024-03-17T01:12:00;22.50;52.20
44723;DHT22;30451;48.638;10.624;2024-03-17T01:14:26;22.50;52.70
44723;DHT22;30451;48.638;10.624;2024-03-17T01:16:52;22.50;52.20
44723;DHT22;30451;48.638;10.624;2024-03-17T01:19:18;22.40;52.10
44723;DHT22;30451;48.638;10.624;2024-03-17T01:21:43;22.40;52.10
44723;DHT22;30451;48.638;10.624;2024-03-17T01:24:09;22.40;52.20
44723;DHT22;30451;48.638;10.624;2024-03-17T01:26:34;22.40;52.20
44723;DHT22;30451;48.638;10.624;2024-03-17T01:29:00;22.40;52.20
44723;DHT22;30451;48.638;10.624;2024-03-17T01:31:27;22.40;52.20
44723;DHT22;30451;48.638;10.624;2024-03-17T01:33:52;22.40;52.20
44723;DHT22;30451;48.638;10.624;2024-03-17T01:36:18;22.40;52.20
44723;DHT22;30451;48.638;10.624;2024-03-17T01:38:43;22.40;52.20
44723;DHT22;30451;48.638;10.624;2024-03-17T01:41:09;22.40;52.20
44723;DHT22;30451;48.638;10.624;2024-03-17T01:43:34;22.40;52.20
44723;DHT22;30451;48.638;10.624;2024-03-17T01:46:00;22.40;52.20
44723;DHT22;30451;48.638;10.624;2024-03-17T01:48:27;22.30;52.20
44723;DHT22;30451;48.638;10.624;2024-03-17T01:50:53;22.30;52.10
44723;DHT22;30451;48.638;10.624;2024-03-17T01:53:20;22.30;52.20
44723;DHT22;30451;48.638;10.624;2024-03-17T01:55:46;22.30;52.20
44723;DHT22;30451;48.638;10.624;2024-03-17T01:58:12;22.30;52.20
44723;DHT22;30451;48.638;10.624;2024-03-17T02:00:38;22.30;52.20
44723;DHT22;30451;48.638;10.624;2024-03-17T02:03:05;22.30;52.20
44723;DHT22;30451;48.638;10.624;2024-03-17T02:05:31;22.30;52.20
44723;DHT22;30451;48.638;10.624;2024-03-17T02:07:57;22.30;52.20
44723;DHT22;30451;48.638;10.624;2024-03-17T02:10:22;22.30;52.20
44723;DHT22;30451;48.638;10.624;2024-03-17T02:12:48;22.20;52.20
44723;DHT22;30451;48.638;10.624;2024-03-17T02:15:13;22.20;52.20
44723;DHT22;30451;48.638;10.624;2024-03-17T02:17:39;22.30;52.20
44723;DHT22;30451;48.638;10.624;2024-03-17T02:20:05;22.20;52.20
44723;DHT22;30451;48.638;10.624;2024-03-17T02:22:36;22.20;52.20
44723;DHT22;30451;48.638;10.624;2024-03-17T02:25:01;22.20;52.20
44723;DHT22;30451;48.638;10.624;2024-03-17T02:27:27;22.20;52.20
44723;DHT22;30451;48.638;10.624;2024-03-17T02:29:53;22.20;52.20
44723;DHT22;30451;48.638;10.624;2024-03-17T02:32:18;22.20;52.20
44723;DHT22;30451;48.638;10.624;2024-03-17T02:34:47;22.20;52.20
44723;DHT22;30451;48.638;10.624;2024-03-17T02:37:13;22.20;52.70
44723;DHT22;30451;48.638;10.624;2024-03-17T02:39:38;22.20;52.20
44723;DHT22;30451;48.638;10.624;2024-03-17T02:42:05;22.10;52.20
44723;DHT22;30451;48.638;10.624;2024-03-17T02:44:31;22.10;52.20
44723;DHT22;30451;48.638;10.624;2024-03-17T02:46:57;22.10;52.20
44723;DHT22;30451;48.638;10.624;2024-03-17T02:49:23;22.10;52.20
44723;DHT22;30451;48.638;10.624;2024-03-17T02:51:49;22.10;52.20
44723;DHT22;30451;48.638;10.624;2024-03-17T02:54:14;22.10;52.20
44723;DHT22;30451;48.638;10.624;2024-03-17T02:56:40;22.10;52.20
44723;DHT22;30451;48.638;10.624;2024-03-17T02:59:07;22.10;52.20
44723;DHT22;30451;48.638;10.624;2024-03-17T03:01:32;22.10;52.20
44723;DHT22;30451;48.638;10.624;2024-03-17T03:03:58;22.10;52.20
44723;DHT22;30451;48.638;10.624;2024-03-17T03:06:23;22.10;52.20
44723;DHT22;30451;48.638;10.624;2024-03-17T03:08:50;22.10;52.70
44723;DHT22;30451;48.638;10.624;2024-03-17T03:11:16;22.10;52.20
44723;DHT22;30451;48.638;10.624;2024-03-17T03:13:42;22.00;52.10
44723;DHT22;30451;48.638;10.624;2024-03-17T03:16:09;22.00;52.10
44723;DHT22;30451;48.638;10.624;2024-03-17T03:18:35;22.00;52.10
44723;DHT22;30451;48.638;10.624;2024-03-17T03:21:01;22.00;52.10
44723;DHT22;30451;48.638;10.624;2024-03-17T03:23:26;22.00;52.10
44723;DHT22;30451;48.638;10.624;2024-03-17T03:25:58;22.00;52.10
44723;DHT22;30451;48.638;10.624;2024-03-17T03:28:24;22.00;52.10
44723;DHT22;30451;48.638;10.624;2024-03-17T03:30:50;22.00;52.10
44723;DHT22;30451;48.638;10.624;2024-03-17T03:33:16;21.90;52.10
44723;DHT22;30451;48.638;10.624;2024-03-17T03:35:43;22.00;52.10
44723;DHT22;30451;48.638;10.624;2024-03-17T03:38:08;22.00;52.10
44723;DHT22;30451;48.638;10.624;2024-03-17T03:40:34;22.00;52.10
44723;DHT22;30451;48.638;10.624;2024-03-17T03:42:59;22.00;52.20
44723;DHT22;30451;48.638;10.624;2024-03-17T03:45:25;22.00;52.20
44723;DHT22;30451;48.638;10.624;2024-03-17T03:47:51;22.00;52.20
44723;DHT22;30451;48.638;10.624;2024-03-17T03:50:19;21.90;52.10
44723;DHT22;30451;48.638;10.624;2024-03-17T03:52:44;22.00;52.20
44723;DHT22;30451;48.638;10.624;2024-03-17T03:55:11;21.90;52.20
44723;DHT22;30451;48.638;10.624;2024-03-17T03:57:43;21.90;52.20
44723;DHT22;30451;48.638;10.624;2024-03-17T04:00:15;21.90;52.20
44723;DHT22;30451;48.638;10.624;2024-03-17T04:02:41;21.90;52.10
44723;DHT22;30451;48.638;10.624;2024-03-17T04:05:07;21.90;52.20
44723;DHT22;30451;48.638;10.624;2024-03-17T04:07:33;21.90;52.20
44723;DHT22;30451;48.638;10.624;2024-03-17T04:09:59;21.90;52.20
44723;DHT22;30451;48.638;10.624;2024-03-17T04:12:25;21.90;52.20
44723;DHT22;30451;48.638;10.624;2024-03-17T04:14:51;21.90;52.30
44723;DHT22;30451;48.638;10.624;2024-03-17T04:17:19;21.80;52.20
44723;DHT22;30451;48.638;10.624;2024-03-17T04:19:47;21.80;52.20
44723;DHT22;30451;48.638;10.624;2024-03-17T04:22:13;21.90;52.30
44723;DHT22;30451;48.638;10.624;2024-03-17T04:24:38;21.80;52.20
44723;DHT22;30451;48.638;10.624;2024-03-17T04:27:03;21.80;52.20
44723;DHT22;30451;48.638;10.624;2024-03-17T04:29:29;21.80;52.20
44723;DHT22;30451;48.638;10.624;2024-03-17T04:31:55;21.80;52.20
44723;DHT22;30451;48.638;10.624;2024-03-17T04:34:20;21.80;52.20
44723;DHT22;30451;48.638;10.624;2024-03-17T04:36:46;21.80;52.20
44723;DHT22;30451;48.638;10.624;2024-03-17T04:39:12;21.80;52.20
44723;DHT22;30451;48.638;10.624;2024-03-17T04:41:37;21.80;52.20
44723;DHT22;30451;48.638;10.624;2024-03-17T04:44:06;21.80;52.20
44723;DHT22;30451;48.638;10.624;2024-03-17T04:46:32;21.80;52.30
44723;DHT22;30451;48.638;10.624;2024-03-17T04:48:57;21.80;52.30
44723;DHT22;30451;48.638;10.624;2024-03-17T04:51:23;21.80;52.30
44723;DHT22;30451;48.638;10.624;2024-03-17T04:53:48;21.80;52.20
44723;DHT22;30451;48.638;10.624;2024-03-17T04:56:14;21.80;52.50
44723;DHT22;30451;48.638;10.624;2024-03-17T04:58:39;21.80;52.30
44723;DHT22;30451;48.638;10.624;2024-03-17T05:01:05;21.80;52.30
44723;DHT22;30451;48.638;10.624;2024-03-17T05:03:32;21.80;52.30
44723;DHT22;30451;48.638;10.624;2024-03-17T05:05:58;21.80;52.30
44723;DHT22;30451;48.638;10.624;2024-03-17T05:08:26;21.80;52.30
44723;DHT22;30451;48.638;10.624;2024-03-17T05:13:23;21.70;52.30
44723;DHT22;30451;48.638;10.624;2024-03-17T05:15:49;21.80;52.30
44723;DHT22;30451;48.638;10.624;2024-03-17T05:18:14;21.70;52.30
44723;DHT22;30451;48.638;10.624;2024-03-17T05:20:40;21.70;52.30
44723;DHT22;30451;48.638;10.624;2024-03-17T05:23:05;21.70;52.30
44723;DHT22;30451;48.638;10.624;2024-03-17T05:25:31;21.70;52.30
44723;DHT22;30451;48.638;10.624;2024-03-17T05:28:02;21.70;52.30
44723;DHT22;30451;48.638;10.624;2024-03-17T05:30:27;21.70;52.30
44723;DHT22;30451;48.638;10.624;2024-03-17T05:32:53;21.70;52.30
44723;DHT22;30451;48.638;10.624;2024-03-17T05:35:18;21.70;52.30
44723;DHT22;30451;48.638;10.624;2024-03-17T05:37:44;21.70;52.30
44723;DHT22;30451;48.638;10.624;2024-03-17T05:40:10;21.70;52.30
44723;DHT22;30451;48.638;10.624;2024-03-17T05:42:37;21.70;52.40
44723;DHT22;30451;48.638;10.624;2024-03-17T05:45:03;21.70;52.40
44723;DHT22;30451;48.638;10.624;2024-03-17T05:47:28;21.70;52.40
44723;DHT22;30451;48.638;10.624;2024-03-17T05:49:54;21.70;52.40
44723;DHT22;30451;48.638;10.624;2024-03-17T05:52:21;21.70;52.40
44723;DHT22;30451;48.638;10.624;2024-03-17T05:54:47;21.70;52.40
44723;DHT22;30451;48.638;10.624;2024-03-17T05:57:12;21.70;52.40
44723;DHT22;30451;48.638;10.624;2024-03-17T05:59:39;21.60;52.30
44723;DHT22;30451;48.638;10.624;2024-03-17T06:02:04;21.60;52.30
44723;DHT22;30451;48.638;10.624;2024-03-17T06:04:30;21.60;52.30
44723;DHT22;30451;48.638;10.624;2024-03-17T06:06:56;21.60;52.30
44723;DHT22;30451;48.638;10.624;2024-03-17T06:09:21;21.60;52.30
44723;DHT22;30451;48.638;10.624;2024-03-17T06:11:48;21.60;52.30
44723;DHT22;30451;48.638;10.624;2024-03-17T06:14:13;21.60;52.40
44723;DHT22;30451;48.638;10.624;2024-03-17T06:16:39;21.60;52.40
44723;DHT22;30451;48.638;10.624;2024-03-17T06:19:04;21.60;52.40
44723;DHT22;30451;48.638;10.624;2024-03-17T06:21:30;21.60;52.40
44723;DHT22;30451;48.638;10.624;2024-03-17T06:23:56;21.60;52.40
44723;DHT22;30451;48.638;10.624;2024-03-17T06:26:22;21.60;52.40
44723;DHT22;30451;48.638;10.624;2024-03-17T06:28:48;21.60;52.40
44723;DHT22;30451;48.638;10.624;2024-03-17T06:31:13;21.60;52.40
44723;DHT22;30451;48.638;10.624;2024-03-17T06:33:39;21.60;52.40
44723;DHT22;30451;48.638;10.624;2024-03-17T06:36:05;21.60;52.40
44723;DHT22;30451;48.638;10.624;2024-03-17T06:38:34;21.60;52.40
44723;DHT22;30451;48.638;10.624;2024-03-17T06:40:59;21.60;52.40
44723;DHT22;30451;48.638;10.624;2024-03-17T06:43:24;21.60;52.40
44723;DHT22;30451;48.638;10.624;2024-03-17T06:45:56;21.60;52.40
44723;DHT22;30451;48.638;10.624;2024-03-17T06:48:22;21.60;52.40
44723;DHT22;30451;48.638;10.624;2024-03-17T06:50:48;21.50;52.30
44723;DHT22;30451;48.638;10.624;2024-03-17T06:53:13;21.60;52.40
44723;DHT22;30451;48.638;10.624;2024-03-17T06:55:39;21.60;52.40
44723;DHT22;30451;48.638;10.624;2024-03-17T06:58:04;21.60;52.40
44723;DHT22;30451;48.638;10.624;2024-03-17T07:00:30;21.60;52.40
44723;DHT22;30451;48.638;10.624;2024-03-17T07:02:55;21.50;52.40
44723;DHT22;30451;48.638;10.624;2024-03-17T07:05:21;21.50;52.40
44723;DHT22;30451;48.638;10.624;2024-03-17T07:07:46;21.60;52.40
44723;DHT22;30451;48.638;10.624;2024-03-17T07:10:12;21.50;52.40
44723;DHT22;30451;48.638;10.624;2024-03-17T07:12:38;21.50;52.40
44723;DHT22;30451;48.638;10.624;2024-03-17T07:15:04;21.50;52.40
44723;DHT22;30451;48.638;10.624;2024-03-17T07:17:30;21.50;52.40
44723;DHT22;30451;48.638;10.624;2024-03-17T07:19:55;21.50;52.40
44723;DHT22;30451;48.638;10.624;2024-03-17T07:22:21;21.50;52.40
44723;DHT22;30451;48.638;10.624;2024-03-17T07:24:48;21.50;52.50
44723;DHT22;30451;48.638;10.624;2024-03-17T07:27:15;21.50;52.50
44723;DHT22;30451;48.638;10.624;2024-03-17T07:29:41;21.50;53.00
44723;DHT22;30451;48.638;10.624;2024-03-17T07:32:06;21.50;52.50
44723;DHT22;30451;48.638;10.624;2024-03-17T07:34:32;21.50;52.60
44723;DHT22;30451;48.638;10.624;2024-03-17T07:36:58;21.50;52.60
44723;DHT22;30451;48.638;10.624;2024-03-17T07:39:29;21.50;52.60
44723;DHT22;30451;48.638;10.624;2024-03-17T07:42:01;21.50;52.60
44723;DHT22;30451;48.638;10.624;2024-03-17T07:44:27;21.50;52.60
44723;DHT22;30451;48.638;10.624;2024-03-17T07:46:54;21.50;52.60
44723;DHT22;30451;48.638;10.624;2024-03-17T07:49:19;21.50;52.60
44723;DHT22;30451;48.638;10.624;2024-03-17T07:51:45;21.40;52.60
44723;DHT22;30451;48.638;10.624;2024-03-17T07:54:11;21.50;52.70
44723;DHT22;30451;48.638;10.624;2024-03-17T07:56:39;21.50;52.70
44723;DHT22;30451;48.638;10.624;2024-03-17T07:59:04;21.50;52.70
44723;DHT22;30451;48.638;10.624;2024-03-17T08:01:37;21.50;52.80
44723;DHT22;30451;48.638;10.624;2024-03-17T08:04:02;21.50;52.80
44723;DHT22;30451;48.638;10.624;2024-03-17T08:06:29;21.50;52.80
44723;DHT22;30451;48.638;10.624;2024-03-17T08:08:54;21.50;52.80
44723;DHT22;30451;48.638;10.624;2024-03-17T08:11:20;21.50;52.80
44723;DHT22;30451;48.638;10.624;2024-03-17T08:13:45;21.50;52.80
44723;DHT22;30451;48.638;10.624;2024-03-17T08:16:11;21.40;52.80
44723;DHT22;30451;48.638;10.624;2024-03-17T08:18:37;21.40;52.80
44723;DHT22;30451;48.638;10.624;2024-03-17T08:21:03;21.40;52.90
44723;DHT22;30451;48.638;10.624;2024-03-17T08:23:31;21.50;53.00
44723;DHT22;30451;48.638;10.624;2024-03-17T08:25:58;21.40;53.00
44723;DHT22;30451;48.638;10.624;2024-03-17T08:28:24;21.40;53.00
44723;DHT22;30451;48.638;10.624;2024-03-17T08:31:02;21.40;53.00
44723;DHT22;30451;48.638;10.624;2024-03-17T08:33:28;21.40;53.10
44723;DHT22;30451;48.638;10.624;2024-03-17T08:38:23;21.40;53.20
44723;DHT22;30451;48.638;10.624;2024-03-17T08:40:52;21.40;53.20
44723;DHT22;30451;48.638;10.624;2024-03-17T08:43:18;21.40;53.30
44723;DHT22;30451;48.638;10.624;2024-03-17T08:45:44;21.40;53.00
44723;DHT22;30451;48.638;10.624;2024-03-17T08:48:10;21.40;53.00
44723;DHT22;30451;48.638;10.624;2024-03-17T08:50:38;21.40;52.90
44723;DHT22;30451;48.638;10.624;2024-03-17T08:53:05;21.40;52.90
44723;DHT22;30451;48.638;10.624;2024-03-17T08:55:32;21.40;52.80
44723;DHT22;30451;48.638;10.624;2024-03-17T08:57:57;21.40;53.20
44723;DHT22;30451;48.638;10.624;2024-03-17T09:00:22;21.40;52.70
44723;DHT22;30451;48.638;10.624;2024-03-17T09:02:48;21.40;52.50
44723;DHT22;30451;48.638;10.624;2024-03-17T09:05:13;21.40;52.60
44723;DHT22;30451;48.638;10.624;2024-03-17T09:07:39;21.40;52.40
44723;DHT22;30451;48.638;10.624;2024-03-17T09:10:05;21.40;52.40
44723;DHT22;30451;48.638;10.624;2024-03-17T09:12:31;21.40;52.50
44723;DHT22;30451;48.638;10.624;2024-03-17T09:14:57;21.40;52.50
44723;DHT22;30451;48.638;10.624;2024-03-17T09:17:22;21.40;52.50
44723;DHT22;30451;48.638;10.624;2024-03-17T09:19:48;21.40;52.50
44723;DHT22;30451;48.638;10.624;2024-03-17T09:22:13;21.40;52.60
44723;DHT22;30451;48.638;10.624;2024-03-17T09:24:39;21.40;52.50
44723;DHT22;30451;48.638;10.624;2024-03-17T09:27:06;21.40;52.50
44723;DHT22;30451;48.638;10.624;2024-03-17T09:29:31;21.40;52.40
44723;DHT22;30451;48.638;10.624;2024-03-17T09:31:57;21.40;52.30
44723;DHT22;30451;48.638;10.624;2024-03-17T09:34:22;21.40;52.30
44723;DHT22;30451;48.638;10.624;2024-03-17T09:36:48;21.40;52.30
44723;DHT22;30451;48.638;10.624;2024-03-17T09:39:13;21.40;52.20
44723;DHT22;30451;48.638;10.624;2024-03-17T09:41:39;21.40;52.10
44723;DHT22;30451;48.638;10.624;2024-03-17T09:44:05;21.40;52.10
44723;DHT22;30451;48.638;10.624;2024-03-17T09:46:31;21.40;52.10
44723;DHT22;30451;48.638;10.624;2024-03-17T09:48:59;21.40;52.10
44723;DHT22;30451;48.638;10.624;2024-03-17T09:51:25;21.40;52.20
44723;DHT22;30451;48.638;10.624;2024-03-17T09:53:51;21.40;52.20
44723;DHT22;30451;48.638;10.624;2024-03-17T09:56:20;21.50;52.30
44723;DHT22;30451;48.638;10.624;2024-03-17T09:58:49;21.40;52.20
44723;DHT22;30451;48.638;10.624;2024-03-17T10:01:15;21.50;52.30
44723;DHT22;30451;48.638;10.624;2024-03-17T10:06:14;21.50;52.30
44723;DHT22;30451;48.638;10.624;2024-03-17T10:08:40;21.50;52.20
44723;DHT22;30451;48.638;10.624;2024-03-17T10:11:05;21.50;52.30
44723;DHT22;30451;48.638;10.624;2024-03-17T10:13:31;21.50;52.30
44723;DHT22;30451;48.638;10.624;2024-03-17T10:15:56;21.50;52.30
44723;DHT22;30451;48.638;10.624;2024-03-17T10:18:22;21.50;52.30
44723;DHT22;30451;48.638;10.624;2024-03-17T10:20:50;21.50;52.40
44723;DHT22;30451;48.638;10.624;2024-03-17T10:23:23;21.50;52.40
44723;DHT22;30451;48.638;10.624;2024-03-17T10:25:49;21.60;52.50
44723;DHT22;30451;48.638;10.624;2024-03-17T10:28:16;21.60;52.50
44723;DHT22;30451;48.638;10.624;2024-03-17T10:30:42;21.60;52.60
44723;DHT22;30451;48.638;10.624;2024-03-17T10:33:19;21.60;52.70
44723;DHT22;30451;48.638;10.624;2024-03-17T10:35:47;21.60;52.70
44723;DHT22;30451;48.638;10.624;2024-03-17T10:38:13;21.60;52.70
44723;DHT22;30451;48.638;10.624;2024-03-17T10:40:39;21.60;52.70
44723;DHT22;30451;48.638;10.624;2024-03-17T10:43:06;21.60;52.70
44723;DHT22;30451;48.638;10.624;2024-03-17T10:45:34;21.60;52.70
44723;DHT22;30451;48.638;10.624;2024-03-17T10:48:02;21.70;52.80
44723;DHT22;30451;48.638;10.624;2024-03-17T10:50:32;21.70;52.80
44723;DHT22;30451;48.638;10.624;2024-03-17T10:53:04;21.70;52.80
44723;DHT22;30451;48.638;10.624;2024-03-17T10:55:43;21.70;52.80
44723;DHT22;30451;48.638;10.624;2024-03-17T10:58:15;21.70;52.80
44723;DHT22;30451;48.638;10.624;2024-03-17T11:00:43;21.70;52.80
44723;DHT22;30451;48.638;10.624;2024-03-17T11:03:09;21.70;53.30
44723;DHT22;30451;48.638;10.624;2024-03-17T11:05:36;21.70;52.80
44723;DHT22;30451;48.638;10.624;2024-03-17T11:08:03;21.70;52.80
44723;DHT22;30451;48.638;10.624;2024-03-17T11:10:29;21.70;52.80
44723;DHT22;30451;48.638;10.624;2024-03-17T11:12:55;21.70;52.80
44723;DHT22;30451;48.638;10.624;2024-03-17T11:17:53;21.70;52.80
44723;DHT22;30451;48.638;10.624;2024-03-17T11:20:22;21.80;52.90
44723;DHT22;30451;48.638;10.624;2024-03-17T11:22:51;21.80;52.90
44723;DHT22;30451;48.638;10.624;2024-03-17T11:27:56;21.80;52.90
44723;DHT22;30451;48.638;10.624;2024-03-17T11:35:50;21.80;52.90
44723;DHT22;30451;48.638;10.624;2024-03-17T11:43:44;21.80;52.90
44723;DHT22;30451;48.638;10.624;2024-03-17T11:46:10;21.80;52.90
44723;DHT22;30451;48.638;10.624;2024-03-17T11:48:36;21.90;53.00
44723;DHT22;30451;48.638;10.624;2024-03-17T11:51:02;21.90;53.00
44723;DHT22;30451;48.638;10.624;2024-03-17T11:53:29;21.90;53.50
44723;DHT22;30451;48.638;10.624;2024-03-17T11:55:54;21.90;53.00
44723;DHT22;30451;48.638;10.624;2024-03-17T11:58:20;21.90;53.00
44723;DHT22;30451;48.638;10.624;2024-03-17T12:00:56;21.90;53.00
44723;DHT22;30451;48.638;10.624;2024-03-17T12:03:21;21.90;52.90
44723;DHT22;30451;48.638;10.624;2024-03-17T12:05:47;21.90;52.90
44723;DHT22;30451;48.638;10.624;2024-03-17T12:08:20;21.90;52.90
44723;DHT22;30451;48.638;10.624;2024-03-17T12:10:48;21.90;52.90
44723;DHT22;30451;48.638;10.624;2024-03-17T12:13:14;21.90;53.00
44723;DHT22;30451;48.638;10.624;2024-03-17T12:15:40;21.90;53.00
44723;DHT22;30451;48.638;10.624;2024-03-17T12:18:19;21.90;53.00
44723;DHT22;30451;48.638;10.624;2024-03-17T12:20:46;21.90;53.10
44723;DHT22;30451;48.638;10.624;2024-03-17T12:23:13;21.90;53.10
44723;DHT22;30451;48.638;10.624;2024-03-17T12:25:42;21.90;53.20
44723;DHT22;30451;48.638;10.624;2024-03-17T12:28:15;21.90;53.30
44723;DHT22;30451;48.638;10.624;2024-03-17T12:30:41;21.90;53.30
44723;DHT22;30451;48.638;10.624;2024-03-17T12:33:08;21.90;53.30
44723;DHT22;30451;48.638;10.624;2024-03-17T12:35:36;21.90;53.30
44723;DHT22;30451;48.638;10.624;2024-03-17T12:38:01;21.90;53.30
44723;DHT22;30451;48.638;10.624;2024-03-17T12:40:27;21.90;53.30
44723;DHT22;30451;48.638;10.624;2024-03-17T12:42:54;21.90;53.30
44723;DHT22;30451;48.638;10.624;2024-03-17T12:45:23;21.90;53.20
44723;DHT22;30451;48.638;10.624;2024-03-17T12:47:49;21.90;53.20
44723;DHT22;30451;48.638;10.624;2024-03-17T12:50:15;22.00;53.30
44723;DHT22;30451;48.638;10.624;2024-03-17T12:52:46;22.00;53.20
44723;DHT22;30451;48.638;10.624;2024-03-17T12:55:18;22.00;53.20
44723;DHT22;30451;48.638;10.624;2024-03-17T13:01:07;22.00;53.20
44723;DHT22;30451;48.638;10.624;2024-03-17T13:03:33;22.00;53.10
44723;DHT22;30451;48.638;10.624;2024-03-17T13:05:59;22.00;53.10
44723;DHT22;30451;48.638;10.624;2024-03-17T13:08:25;22.00;53.00
44723;DHT22;30451;48.638;10.624;2024-03-17T13:10:51;22.10;53.10
44723;DHT22;30451;48.638;10.624;2024-03-17T13:13:16;22.10;53.00
44723;DHT22;30451;48.638;10.624;2024-03-17T13:15:42;22.10;52.90
44723;DHT22;30451;48.638;10.624;2024-03-17T13:18:08;22.10;52.90
44723;DHT22;30451;48.638;10.624;2024-03-17T13:20:34;22.10;52.80
44723;DHT22;30451;48.638;10.624;2024-03-17T13:22:59;22.10;52.80
44723;DHT22;30451;48.638;10.624;2024-03-17T13:25:26;22.10;52.80
44723;DHT22;30451;48.638;10.624;2024-03-17T13:27:54;22.10;52.70
44723;DHT22;30451;48.638;10.624;2024-03-17T13:30:21;22.10;52.60
44723;DHT22;30451;48.638;10.624;2024-03-17T13:32:48;22.10;52.50
44723;DHT22;30451;48.638;10.624;2024-03-17T13:35:18;22.10;52.40
44723;DHT22;30451;48.638;10.624;2024-03-17T13:37:47;22.10;52.40
44723;DHT22;30451;48.638;10.624;2024-03-17T13:40:13;22.10;52.30
44723;DHT22;30451;48.638;10.624;2024-03-17T13:42:42;22.10;52.30
44723;DHT22;30451;48.638;10.624;2024-03-17T13:45:09;22.10;52.20
44723;DHT22;30451;48.638;10.624;2024-03-17T13:47:35;22.20;52.30
44723;DHT22;30451;48.638;10.624;2024-03-17T13:50:01;22.20;52.30
44723;DHT22;30451;48.638;10.624;2024-03-17T13:52:34;22.20;52.20
44723;DHT22;30451;48.638;10.624;2024-03-17T13:55:00;22.20;52.30
44723;DHT22;30451;48.638;10.624;2024-03-17T13:57:25;22.20;52.20
44723;DHT22;30451;48.638;10.624;2024-03-17T13:59:51;22.20;52.20
44723;DHT22;30451;48.638;10.624;2024-03-17T14:02:17;22.20;52.20
44723;DHT22;30451;48.638;10.624;2024-03-17T14:04:43;22.20;52.70
44723;DHT22;30451;48.638;10.624;2024-03-17T14:07:08;22.20;52.20
44723;DHT22;30451;48.638;10.624;2024-03-17T14:09:34;22.20;52.20
44723;DHT22;30451;48.638;10.624;2024-03-17T14:11:59;22.20;52.20
44723;DHT22;30451;48.638;10.624;2024-03-17T14:14:25;22.20;52.20
44723;DHT22;30451;48.638;10.624;2024-03-17T14:16:50;22.20;52.20
44723;DHT22;30451;48.638;10.624;2024-03-17T14:19:16;22.20;52.20
44723;DHT22;30451;48.638;10.624;2024-03-17T14:21:41;22.20;52.20
44723;DHT22;30451;48.638;10.624;2024-03-17T14:24:06;22.20;52.20
44723;DHT22;30451;48.638;10.624;2024-03-17T14:26:34;22.20;52.30
44723;DHT22;30451;48.638;10.624;2024-03-17T14:29:02;22.20;52.70
44723;DHT22;30451;48.638;10.624;2024-03-17T14:31:31;22.20;52.50
44723;DHT22;30451;48.638;10.624;2024-03-17T14:33:57;22.30;52.50
44723;DHT22;30451;48.638;10.624;2024-03-17T14:36:25;22.30;52.60
44723;DHT22;30451;48.638;10.624;2024-03-17T14:38:53;22.30;52.60
44723;DHT22;30451;48.638;10.624;2024-03-17T14:41:19;22.40;52.60
44723;DHT22;30451;48.638;10.624;2024-03-17T14:43:45;22.40;52.60
44723;DHT22;30451;48.638;10.624;2024-03-17T14:46:12;22.40;52.50
44723;DHT22;30451;48.638;10.624;2024-03-17T14:48:39;22.40;52.40
44723;DHT22;30451;48.638;10.624;2024-03-17T14:51:05;22.50;52.40
44723;DHT22;30451;48.638;10.624;2024-03-17T14:53:30;22.50;52.40
44723;DHT22;30451;48.638;10.624;2024-03-17T14:55:56;22.50;52.30
44723;DHT22;30451;48.638;10.624;2024-03-17T14:58:21;22.60;52.30
44723;DHT22;30451;48.638;10.624;2024-03-17T15:00:47;22.60;52.20
44723;DHT22;30451;48.638;10.624;2024-03-17T15:03:12;22.60;52.10
44723;DHT22;30451;48.638;10.624;2024-03-17T15:05:39;22.60;52.10
44723;DHT22;30451;48.638;10.624;2024-03-17T15:08:04;22.60;52.10
44723;DHT22;30451;48.638;10.624;2024-03-17T15:10:30;22.70;52.10
44723;DHT22;30451;48.638;10.624;2024-03-17T15:12:55;22.70;52.00
44723;DHT22;30451;48.638;10.624;2024-03-17T15:15:21;22.70;52.00
44723;DHT22;30451;48.638;10.624;2024-03-17T15:17:47;22.70;52.00
44723;DHT22;30451;48.638;10.624;2024-03-17T15:20:18;22.80;51.90
44723;DHT22;30451;48.638;10.624;2024-03-17T15:22:48;22.80;51.90
44723;DHT22;30451;48.638;10.624;2024-03-17T15:25:15;22.80;51.80
44723;DHT22;30451;48.638;10.624;2024-03-17T15:27:44;22.90;51.80
44723;DHT22;30451;48.638;10.624;2024-03-17T15:32:44;22.90;51.80
44723;DHT22;30451;48.638;10.624;2024-03-17T15:35:10;22.90;51.70
44723;DHT22;30451;48.638;10.624;2024-03-17T15:37:35;22.90;51.70
44723;DHT22;30451;48.638;10.624;2024-03-17T15:40:01;22.90;51.70